KMDW/MDW METAR and TAF weather

Enter ICAO airport designator
Station Type Date Time Source
KMDW METAR 2020/09/22 17:53 UTC NOAA

KMDW 221753Z 22009KT 10SM FEW170 FEW250 24/12 A3017 RMK AO2 SLP209 T02440117 10244 20128 58020


Station Type Date Time Source
KMDW Decoded METAR 2020/09/22 17:53 UTC NOAA

CHICAGO MIDWAY AIRPORT, IL, United States (KMDW) 41-47N 087-45W 188M
Sep 22, 2020 - 01:53 PM EDT / 2020.09.22 1753 UTC
Wind: from the SW (220 degrees) at 10 MPH (9 KT):0
Visibility: 10 mile(s):0
Sky conditions: mostly clear
Temperature: 75.9 F (24.4 C)
Dew Point: 53.1 F (11.7 C)
Relative Humidity: 44%
Pressure (altimeter): 30.17 in. Hg (1021 hPa)
Pressure tendency: 0.06 inches (2.0 hPa) lower than three hours ago
ob: KMDW 221753Z 22009KT 10SM FEW170 FEW250 24/12 A3017 RMK AO2 SLP209 T02440117 10244 20128 58020
cycle: 18

Station Type Date Time Source
KMDW TAF 2020/09/22 18:22 UTC NOAA

TAF KMDW 221720Z 2218/2324 23007KT P6SM SCT100

Example: see airport list